Time;durP1;ratioP1;P1;durP2;ratioP2;P2;SDS_P1;SDS_P2;PMS_P1;PMS_P2;Temp;Humidity;BMP_temperature;BMP_pressure;BME280_temperature;BME280_humidity;BME280_pressure;Samples;Min_cycle;Max_cycle;Signal;HPM_P1;HPM_P2
2022/04/09 00:04:50;;;;;;;3.97;1.27;;;;;;;;;;10431505;28;20013;-70
2022/04/09 00:09:50;;;;;;;7.40;2.10;;;;;;;;;;10439452;28;20037;-70
2022/04/09 00:14:50;;;;;;;3.73;1.60;;;;;;;;;;10431322;28;20483;-72
2022/04/09 00:19:52;;;;;;;4.17;2.03;;;;;;;;;;10435275;28;20289;-69
2022/04/09 00:24:52;;;;;;;2.50;1.27;;;;;;;;;;10445996;28;20271;-69
2022/04/09 00:29:55;;;;;;;2.42;1.15;;;;;;;;;;10445705;28;20452;-75
2022/04/09 00:34:55;;;;;;;3.60;1.23;;;;;;;;;;10445768;28;20031;-71
2022/04/09 00:39:56;;;;;;;2.27;1.40;;;;;;;;;;10428754;28;20020;-70
2022/04/09 00:44:56;;;;;;;5.38;1.50;;;;;;;;;;10429089;28;20561;-72
2022/04/09 00:49:57;;;;;;;3.13;1.42;;;;;;;;;;10444950;28;20021;-74
2022/04/09 00:54:57;;;;;;;4.05;1.52;;;;;;;;;;10445419;28;20025;-70
2022/04/09 00:59:58;;;;;;;5.70;1.02;;;;;;;;;;10445127;28;20063;-70
2022/04/09 01:04:59;;;;;;;1.98;1.00;;;;;;;;;;10428050;28;20031;-70
2022/04/09 01:10:00;;;;;;;1.85;1.35;;;;;;;;;;10445190;28;20033;-70
2022/04/09 01:15:07;;;;;;;4.50;1.70;;;;;;;;;;10460480;28;20035;-70
2022/04/09 01:20:34;;;;;;;10.38;1.40;;;;;;;;;;10475262;28;20037;-71
2022/04/09 01:25:35;;;;;;;2.25;1.02;;;;;;;;;;10472119;28;20169;-71
2022/04/09 01:30:35;;;;;;;7.00;1.67;;;;;;;;;;10477349;28;20111;-70
2022/04/09 01:35:35;;;;;;;2.03;1.40;;;;;;;;;;10477328;28;20045;-72
2022/04/09 01:40:35;;;;;;;1.90;1.30;;;;;;;;;;10476837;28;20480;-74
2022/04/09 01:45:36;;;;;;;3.97;1.60;;;;;;;;;;10476569;28;20425;-71
2022/04/09 01:50:36;;;;;;;5.53;1.40;;;;;;;;;;10476533;28;20517;-70
2022/04/09 01:55:37;;;;;;;3.38;1.55;;;;;;;;;;10476451;28;20271;-71
2022/04/09 02:00:37;;;;;;;5.15;1.63;;;;;;;;;;10475961;28;20471;-71
2022/04/09 02:05:38;;;;;;;4.38;1.83;;;;;;;;;;10476106;28;20024;-71
2022/04/09 02:10:38;;;;;;;11.98;1.90;;;;;;;;;;10475933;28;20021;-71
2022/04/09 02:15:38;;;;;;;5.45;1.60;;;;;;;;;;10476240;28;20471;-71
2022/04/09 02:20:39;;;;;;;4.23;2.17;;;;;;;;;;10493730;28;20029;-71
2022/04/09 02:25:39;;;;;;;3.08;2.33;;;;;;;;;;10475731;28;20398;-70
2022/04/09 02:30:39;;;;;;;2.78;2.00;;;;;;;;;;10491885;28;20052;-71
2022/04/09 02:35:40;;;;;;;4.35;2.38;;;;;;;;;;10476226;28;20565;-71
2022/04/09 02:40:40;;;;;;;5.82;2.80;;;;;;;;;;10474837;28;20381;-71
2022/04/09 02:45:41;;;;;;;4.90;2.17;;;;;;;;;;10474494;28;20523;-70
2022/04/09 02:50:41;;;;;;;5.85;2.17;;;;;;;;;;10474252;28;20491;-70
2022/04/09 02:55:41;;;;;;;3.70;2.43;;;;;;;;;;10474268;28;20556;-71
2022/04/09 03:00:42;;;;;;;5.07;2.67;;;;;;;;;;10474126;28;20400;-71
2022/04/09 03:05:42;;;;;;;8.43;2.50;;;;;;;;;;10473628;28;20077;-70
2022/04/09 03:10:42;;;;;;;4.68;2.70;;;;;;;;;;10474063;28;20040;-72
2022/04/09 03:15:43;;;;;;;4.78;2.70;;;;;;;;;;10473346;28;20035;-70
2022/04/09 03:20:43;;;;;;;5.60;2.70;;;;;;;;;;10472815;28;20186;-71
2022/04/09 03:25:43;;;;;;;6.15;3.30;;;;;;;;;;10473185;28;20028;-70
2022/04/09 03:30:46;;;;;;;8.35;3.50;;;;;;;;;;10473274;28;20065;-74
2022/04/09 03:35:48;;;;;;;4.72;2.60;;;;;;;;;;10472891;28;20028;-72
2022/04/09 03:40:48;;;;;;;5.97;2.67;;;;;;;;;;10472055;28;20039;-73
2022/04/09 03:45:48;;;;;;;9.07;3.20;;;;;;;;;;10472411;28;20017;-73
2022/04/09 03:50:49;;;;;;;7.70;3.17;;;;;;;;;;10472555;28;20487;-70
2022/04/09 03:55:49;;;;;;;5.40;2.53;;;;;;;;;;10489886;28;20138;-75
2022/04/09 04:00:50;;;;;;;4.47;2.50;;;;;;;;;;10471597;28;20025;-71
2022/04/09 04:05:52;;;;;;;14.75;3.17;;;;;;;;;;10473851;28;20053;-72
2022/04/09 04:10:53;;;;;;;4.60;2.60;;;;;;;;;;10494555;28;20028;-74
2022/04/09 04:15:55;;;;;;;6.60;2.80;;;;;;;;;;10454937;28;20029;-73
2022/04/09 04:20:55;;;;;;;13.38;3.38;;;;;;;;;;10470681;28;20408;-70
2022/04/09 04:25:55;;;;;;;9.90;2.60;;;;;;;;;;10454790;28;20016;-74
2022/04/09 04:30:56;;;;;;;12.77;3.10;;;;;;;;;;10488264;28;20048;-70
2022/04/09 04:35:56;;;;;;;7.03;3.93;;;;;;;;;;10470505;28;20501;-72
2022/04/09 04:40:56;;;;;;;10.18;4.20;;;;;;;;;;10470107;28;20546;-71
2022/04/09 04:45:57;;;;;;;8.85;3.25;;;;;;;;;;10470135;28;20086;-71
2022/04/09 04:50:57;;;;;;;9.67;3.93;;;;;;;;;;10469544;28;20029;-73
2022/04/09 04:55:57;;;;;;;6.40;3.63;;;;;;;;;;10444322;28;20404;-74
2022/04/09 05:00:58;;;;;;;27.15;4.68;;;;;;;;;;10428743;28;20116;-72
2022/04/09 05:05:58;;;;;;;19.98;4.78;;;;;;;;;;10454897;28;20021;-72
2022/04/09 05:10:58;;;;;;;21.98;5.60;;;;;;;;;;10466190;28;20029;-71
2022/04/09 05:15:59;;;;;;;16.07;3.33;;;;;;;;;;10455041;28;20111;-73
2022/04/09 05:20:59;;;;;;;6.30;2.63;;;;;;;;;;10460434;28;20739;-75
2022/04/09 05:25:59;;;;;;;10.67;2.73;;;;;;;;;;10464581;28;20677;-76
2022/04/09 05:31:00;;;;;;;6.60;2.67;;;;;;;;;;10463457;28;20298;-70
2022/04/09 05:36:02;;;;;;;5.70;3.05;;;;;;;;;;10466333;28;20031;-70
2022/04/09 05:41:02;;;;;;;8.77;2.13;;;;;;;;;;10450339;28;20020;-72
2022/04/09 05:46:03;;;;;;;18.08;3.72;;;;;;;;;;10444378;28;20021;-71
2022/04/09 05:51:03;;;;;;;4.20;1.98;;;;;;;;;;10426423;28;20112;-74
2022/04/09 05:56:04;;;;;;;4.93;2.28;;;;;;;;;;10437111;28;20025;-74
2022/04/09 06:01:05;;;;;;;8.55;3.67;;;;;;;;;;10451436;28;20013;-71
2022/04/09 06:06:05;;;;;;;10.90;4.35;;;;;;;;;;10431041;28;20039;-71
2022/04/09 06:11:05;;;;;;;11.70;4.77;;;;;;;;;;10439436;28;20032;-73
2022/04/09 06:16:08;;;;;;;11.55;3.97;;;;;;;;;;10490111;28;20029;-70
2022/04/09 06:21:09;;;;;;;9.48;5.00;;;;;;;;;;10466290;28;20538;-72
2022/04/09 06:26:09;;;;;;;8.98;4.38;;;;;;;;;;10458778;28;20017;-72
2022/04/09 06:31:09;;;;;;;9.43;3.00;;;;;;;;;;10472782;28;20147;-73
2022/04/09 06:36:10;;;;;;;13.40;3.67;;;;;;;;;;10473990;28;20026;-76
2022/04/09 06:41:10;;;;;;;7.10;3.33;;;;;;;;;;10473841;28;20678;-75
2022/04/09 06:46:10;;;;;;;9.07;2.97;;;;;;;;;;10436212;28;20024;-73
2022/04/09 06:51:11;;;;;;;8.70;3.28;;;;;;;;;;10432988;28;20119;-71
2022/04/09 06:56:11;;;;;;;9.20;2.80;;;;;;;;;;10473022;28;20032;-71
2022/04/09 07:01:11;;;;;;;8.75;3.00;;;;;;;;;;10483441;28;20036;-71
2022/04/09 07:06:13;;;;;;;11.15;3.38;;;;;;;;;;10450610;28;20020;-71
2022/04/09 07:11:13;;;;;;;8.95;3.28;;;;;;;;;;10472058;28;20078;-71
2022/04/09 07:16:13;;;;;;;10.93;5.17;;;;;;;;;;10470130;28;20035;-73
2022/04/09 07:21:14;;;;;;;9.95;3.78;;;;;;;;;;10486014;28;20031;-71
2022/04/09 07:26:18;;;;;;;6.55;3.38;;;;;;;;;;10467614;28;20073;-74
2022/04/09 07:31:18;;;;;;;7.10;3.28;;;;;;;;;;10470496;28;20060;-75
2022/04/09 07:36:19;;;;;;;5.70;2.70;;;;;;;;;;10455770;28;20025;-70
2022/04/09 07:41:19;;;;;;;8.90;2.47;;;;;;;;;;10444633;28;20029;-75
2022/04/09 07:46:19;;;;;;;4.03;1.70;;;;;;;;;;10427216;28;20509;-74
2022/04/09 07:51:20;;;;;;;11.57;1.43;;;;;;;;;;10447414;28;20033;-70
2022/04/09 07:56:20;;;;;;;5.90;1.50;;;;;;;;;;10447414;28;20029;-76
2022/04/09 08:01:20;;;;;;;7.70;1.33;;;;;;;;;;10446721;28;20079;-71
2022/04/09 08:06:21;;;;;;;4.00;1.17;;;;;;;;;;10428319;28;20027;-72
2022/04/09 08:11:21;;;;;;;8.15;2.15;;;;;;;;;;10454064;28;20028;-73
2022/04/09 08:16:21;;;;;;;4.28;1.45;;;;;;;;;;10485428;28;20506;-72
2022/04/09 08:21:21;;;;;;;4.30;1.70;;;;;;;;;;10469203;28;20042;-73
2022/04/09 08:26:22;;;;;;;5.27;1.17;;;;;;;;;;10429693;28;20112;-74
2022/04/09 08:31:22;;;;;;;4.65;1.48;;;;;;;;;;10479321;28;20052;-71
2022/04/09 08:36:22;;;;;;;7.37;1.50;;;;;;;;;;10453107;28;20031;-75
2022/04/09 08:41:23;;;;;;;3.90;1.30;;;;;;;;;;10452609;28;20107;-74
2022/04/09 08:46:25;;;;;;;6.13;1.38;;;;;;;;;;10427377;28;20108;-75
2022/04/09 08:51:25;;;;;;;3.92;1.50;;;;;;;;;;10439429;28;20032;-71
2022/04/09 08:56:25;;;;;;;5.50;1.80;;;;;;;;;;10444200;28;20070;-71
2022/04/09 09:01:26;;;;;;;3.90;1.70;;;;;;;;;;10435955;28;20017;-74
2022/04/09 09:06:35;;;;;;;3.95;1.95;;;;;;;;;;10469059;28;20008;-75
2022/04/09 09:11:46;;;;;;;6.20;1.20;;;;;;;;;;10438837;28;20412;-70
2022/04/09 09:16:48;;;;;;;4.28;1.63;;;;;;;;;;10468397;28;20115;-75
2022/04/09 09:21:54;;;;;;;4.90;1.30;;;;;;;;;;10467545;28;20033;-71
2022/04/09 09:26:59;;;;;;;4.00;1.30;;;;;;;;;;10468348;28;20021;-75
2022/04/09 09:32:00;;;;;;;4.55;1.77;;;;;;;;;;10485691;28;20052;-76
2022/04/09 09:37:00;;;;;;;7.22;1.70;;;;;;;;;;10440269;28;20038;-74
2022/04/09 09:42:04;;;;;;;4.00;1.98;;;;;;;;;;10434273;28;20029;-74
2022/04/09 09:47:06;;;;;;;4.28;1.65;;;;;;;;;;10451180;28;20044;-77
2022/04/09 09:52:07;;;;;;;2.75;1.45;;;;;;;;;;10450611;28;20024;-74
2022/04/09 09:57:18;;;;;;;8.93;1.40;;;;;;;;;;10450573;28;20033;-72
2022/04/09 10:02:20;;;;;;;5.07;1.23;;;;;;;;;;10473950;28;20097;-76
2022/04/09 10:07:21;;;;;;;3.55;0.85;;;;;;;;;;10475206;28;20024;-71
2022/04/09 10:12:22;;;;;;;4.10;0.82;;;;;;;;;;10467056;28;20028;-74
2022/04/09 10:17:23;;;;;;;7.57;0.80;;;;;;;;;;10457718;28;20060;-75
2022/04/09 10:22:24;;;;;;;4.43;0.88;;;;;;;;;;10415804;28;20499;-75
2022/04/09 10:27:38;;;;;;;3.03;0.90;;;;;;;;;;10432427;28;20029;-71
2022/04/09 10:32:42;;;;;;;3.55;0.90;;;;;;;;;;10433457;28;20052;-75
2022/04/09 10:38:02;;;;;;;4.60;1.20;;;;;;;;;;10432021;28;20039;-70
2022/04/09 10:43:04;;;;;;;2.00;0.93;;;;;;;;;;10432229;28;20124;-74
2022/04/09 10:48:06;;;;;;;3.20;1.42;;;;;;;;;;10448454;28;20029;-73
2022/04/09 10:53:07;;;;;;;7.13;2.50;;;;;;;;;;10449281;28;20523;-73
2022/04/09 10:58:10;;;;;;;2.67;0.80;;;;;;;;;;10430479;28;20361;-71
2022/04/09 11:03:17;;;;;;;2.08;0.63;;;;;;;;;;10431270;28;20033;-72
2022/04/09 11:08:17;;;;;;;;;;;;;;;;;;10431273;28;20028;-71
2022/04/09 11:13:28;;;;;;;5.85;1.10;;;;;;;;;;10454862;28;19910;-74
2022/04/09 11:18:29;;;;;;;2.17;1.00;;;;;;;;;;10470225;28;20086;-72
2022/04/09 11:23:29;;;;;;;2.88;1.00;;;;;;;;;;10471378;28;20373;-70
2022/04/09 11:28:37;;;;;;;3.08;0.75;;;;;;;;;;10470930;28;20031;-71
2022/04/09 11:33:38;;;;;;;;;;;;;;;;;;10471302;28;20147;-70
2022/04/09 11:38:38;;;;;;;4.75;0.80;;;;;;;;;;10471051;28;19954;-74
2022/04/09 11:43:45;;;;;;;0.77;0.73;;;;;;;;;;10471415;28;20573;-70
2022/04/09 11:48:48;;;;;;;4.40;1.50;;;;;;;;;;10455076;28;20039;-71
2022/04/09 11:53:48;;;;;;;7.45;0.85;;;;;;;;;;10489235;28;20020;-71
2022/04/09 11:58:49;;;;;;;3.80;0.73;;;;;;;;;;10470889;28;20021;-72
2022/04/09 12:03:53;;;;;;;3.13;1.00;;;;;;;;;;10471342;28;20545;-71
2022/04/09 12:08:53;;;;;;;5.55;1.02;;;;;;;;;;10488950;28;20029;-70
2022/04/09 12:13:53;;;;;;;9.05;1.85;;;;;;;;;;10471924;28;20032;-74
2022/04/09 12:19:03;;;;;;;1.98;0.75;;;;;;;;;;10472796;28;20033;-74
2022/04/09 12:24:10;;;;;;;2.88;0.70;;;;;;;;;;10470935;28;20020;-73
2022/04/09 12:29:19;;;;;;;2.80;0.83;;;;;;;;;;10470782;28;20040;-71
2022/04/09 12:34:20;;;;;;;1.52;0.70;;;;;;;;;;10471224;28;20056;-71
2022/04/09 12:39:24;;;;;;;2.50;0.90;;;;;;;;;;10470005;28;20493;-74
2022/04/09 12:44:26;;;;;;;2.25;0.70;;;;;;;;;;10470059;28;20049;-71
2022/04/09 12:49:27;;;;;;;3.47;0.93;;;;;;;;;;10487888;28;20024;-70
2022/04/09 12:54:29;;;;;;;2.03;1.00;;;;;;;;;;10487797;28;20078;-71
2022/04/09 12:59:29;;;;;;;4.18;1.00;;;;;;;;;;10487959;28;20522;-72
2022/04/09 13:04:30;;;;;;;5.30;0.90;;;;;;;;;;10444926;28;20040;-76
2022/04/09 13:09:30;;;;;;;1.65;0.75;;;;;;;;;;10428286;28;20029;-71
2022/04/09 13:14:30;;;;;;;3.77;0.87;;;;;;;;;;10469414;28;20468;-71
2022/04/09 13:19:34;;;;;;;4.50;0.70;;;;;;;;;;10452667;28;20124;-72
2022/04/09 13:24:34;;;;;;;2.60;1.02;;;;;;;;;;10436293;28;20047;-73
2022/04/09 13:29:34;;;;;;;5.67;0.90;;;;;;;;;;10453609;28;20025;-72
2022/04/09 13:34:35;;;;;;;7.95;1.05;;;;;;;;;;10436630;28;20048;-77
2022/04/09 13:39:35;;;;;;;2.50;0.60;;;;;;;;;;10453285;28;20057;-74
2022/04/09 13:44:38;;;;;;;4.68;0.82;;;;;;;;;;10451993;28;20423;-74
2022/04/09 13:49:41;;;;;;;1.88;0.60;;;;;;;;;;10451313;28;20466;-73
2022/04/09 13:54:41;;;;;;;2.25;0.80;;;;;;;;;;10470237;28;20052;-75
2022/04/09 13:59:42;;;;;;;1.55;0.85;;;;;;;;;;10437598;28;20111;-75
2022/04/09 14:04:42;;;;;;;1.80;0.63;;;;;;;;;;10430684;28;20025;-74
2022/04/09 14:09:42;;;;;;;1.92;0.93;;;;;;;;;;10448966;28;20020;-75
2022/04/09 14:14:42;;;;;;;1.70;0.75;;;;;;;;;;10490737;28;20415;-70
2022/04/09 14:19:43;;;;;;;2.72;0.95;;;;;;;;;;10472935;28;20115;-75
2022/04/09 14:24:43;;;;;;;1.17;0.70;;;;;;;;;;10471669;28;20067;-71
2022/04/09 14:29:43;;;;;;;5.63;1.02;;;;;;;;;;10473371;28;20102;-76
2022/04/09 14:34:44;;;;;;;7.00;0.73;;;;;;;;;;10464891;28;20032;-74
2022/04/09 14:39:44;;;;;;;6.83;0.90;;;;;;;;;;10473164;28;20016;-74
2022/04/09 14:44:44;;;;;;;1.33;0.60;;;;;;;;;;10463072;28;20046;-70
2022/04/09 14:49:46;;;;;;;4.47;0.95;;;;;;;;;;10472118;28;20046;-71
2022/04/09 14:54:46;;;;;;;2.88;0.60;;;;;;;;;;10472417;28;20112;-74
2022/04/09 14:59:46;;;;;;;1.48;0.70;;;;;;;;;;10472279;28;20025;-76
2022/04/09 15:04:47;;;;;;;5.60;1.00;;;;;;;;;;10458229;28;20078;-72
2022/04/09 15:09:47;;;;;;;3.67;1.05;;;;;;;;;;10436828;28;20063;-75
2022/04/09 15:14:47;;;;;;;1.88;1.00;;;;;;;;;;10448677;28;20474;-72
2022/04/09 15:19:47;;;;;;;2.65;1.08;;;;;;;;;;10463335;28;20089;-72
2022/04/09 15:24:48;;;;;;;6.80;0.97;;;;;;;;;;10472372;28;20039;-73
2022/04/09 15:29:48;;;;;;;2.00;1.03;;;;;;;;;;10470544;28;20048;-71
2022/04/09 15:34:48;;;;;;;2.15;0.77;;;;;;;;;;10446227;28;20025;-75
2022/04/09 15:39:49;;;;;;;5.50;1.00;;;;;;;;;;10449426;28;20393;-75
2022/04/09 15:44:49;;;;;;;2.83;1.13;;;;;;;;;;10488066;28;20012;-73
2022/04/09 15:49:49;;;;;;;9.17;1.50;;;;;;;;;;10471040;28;20021;-75
2022/04/09 15:54:50;;;;;;;11.47;1.30;;;;;;;;;;10488643;28;20021;-74
2022/04/09 15:59:50;;;;;;;5.13;0.90;;;;;;;;;;10466195;28;20725;-76
2022/04/09 16:04:53;;;;;;;6.25;1.45;;;;;;;;;;10468243;28;20377;-73
2022/04/09 16:09:53;;;;;;;7.50;1.80;;;;;;;;;;10469912;28;20025;-71
2022/04/09 16:14:54;;;;;;;5.95;1.50;;;;;;;;;;10469555;28;20062;-77
2022/04/09 16:19:54;;;;;;;5.33;1.73;;;;;;;;;;10445333;28;20078;-77
2022/04/09 16:24:54;;;;;;;7.53;1.80;;;;;;;;;;10429229;28;20452;-76
2022/04/09 16:29:55;;;;;;;8.00;1.57;;;;;;;;;;10435413;28;20037;-77
2022/04/09 16:34:55;;;;;;;6.87;2.33;;;;;;;;;;10443695;28;20275;-74
2022/04/09 16:39:56;;;;;;;10.25;2.40;;;;;;;;;;10427466;28;20119;-74
2022/04/09 16:44:56;;;;;;;4.97;1.40;;;;;;;;;;10439855;28;20023;-74
2022/04/09 16:49:56;;;;;;;9.75;1.85;;;;;;;;;;10486472;28;20527;-71
2022/04/09 16:54:57;;;;;;;2.35;1.42;;;;;;;;;;10484856;28;20463;-77
2022/04/09 16:59:57;;;;;;;5.10;1.40;;;;;;;;;;10428166;28;20021;-72
2022/04/09 17:04:57;;;;;;;8.17;1.77;;;;;;;;;;10427036;28;20326;-72
2022/04/09 17:09:58;;;;;;;11.35;1.80;;;;;;;;;;10428047;28;20111;-71
2022/04/09 17:14:58;;;;;;;4.07;1.97;;;;;;;;;;10445229;28;20039;-75
2022/04/09 17:19:58;;;;;;;5.03;1.50;;;;;;;;;;10425686;28;20043;-72
2022/04/09 17:24:58;;;;;;;8.27;2.35;;;;;;;;;;10443716;28;20029;-75
2022/04/09 17:29:59;;;;;;;6.10;1.88;;;;;;;;;;10427225;28;20049;-74
2022/04/09 17:34:59;;;;;;;6.95;2.22;;;;;;;;;;10426845;28;20116;-75
2022/04/09 17:39:59;;;;;;;9.32;2.22;;;;;;;;;;10443595;28;20095;-71
2022/04/09 17:45:00;;;;;;;6.30;2.90;;;;;;;;;;10431853;28;20027;-75
2022/04/09 17:50:00;;;;;;;8.98;3.28;;;;;;;;;;10467391;28;20037;-71
2022/04/09 17:55:00;;;;;;;5.65;2.58;;;;;;;;;;10467560;28;20029;-74
2022/04/09 18:00:01;;;;;;;6.88;3.20;;;;;;;;;;10470066;28;20503;-76
2022/04/09 18:05:01;;;;;;;5.63;2.63;;;;;;;;;;10463264;28;20404;-74
2022/04/09 18:10:02;;;;;;;10.30;2.65;;;;;;;;;;10469038;23;20081;-73
2022/04/09 18:15:03;;;;;;;9.60;3.08;;;;;;;;;;10436434;28;20021;-75
2022/04/09 18:20:03;;;;;;;8.25;2.83;;;;;;;;;;10408323;28;20062;-70
2022/04/09 18:25:04;;;;;;;8.87;2.37;;;;;;;;;;10408832;28;20523;-70
2022/04/09 18:30:05;;;;;;;8.32;2.35;;;;;;;;;;10425247;28;20272;-70
2022/04/09 18:35:05;;;;;;;5.20;2.83;;;;;;;;;;10408230;28;20447;-74
2022/04/09 18:40:06;;;;;;;5.30;1.90;;;;;;;;;;10420893;28;20075;-76
2022/04/09 18:45:06;;;;;;;11.98;5.57;;;;;;;;;;10455173;28;20029;-70
2022/04/09 18:50:11;;;;;;;13.90;4.78;;;;;;;;;;10428006;28;20025;-71
2022/04/09 18:55:11;;;;;;;5.03;2.53;;;;;;;;;;10447772;28;20036;-70
2022/04/09 19:00:12;;;;;;;5.10;2.13;;;;;;;;;;10449350;28;20419;-72
2022/04/09 19:05:12;;;;;;;13.85;2.47;;;;;;;;;;10447778;28;20079;-75
2022/04/09 19:10:15;;;;;;;4.93;2.53;;;;;;;;;;10477950;28;20072;-76
2022/04/09 19:15:16;;;;;;;4.65;2.97;;;;;;;;;;10463168;28;20452;-69
2022/04/09 19:20:16;;;;;;;11.50;2.70;;;;;;;;;;10431534;28;20028;-72
2022/04/09 19:25:17;;;;;;;9.27;2.13;;;;;;;;;;10471942;28;20035;-75
2022/04/09 19:30:17;;;;;;;6.80;2.40;;;;;;;;;;10489618;28;20090;-75
2022/04/09 19:35:17;;;;;;;3.95;2.17;;;;;;;;;;10470875;28;20028;-75
2022/04/09 19:40:18;;;;;;;12.10;2.70;;;;;;;;;;10471046;28;20412;-71
2022/04/09 19:45:18;;;;;;;7.00;2.40;;;;;;;;;;10467163;28;20024;-73
2022/04/09 19:50:18;;;;;;;7.40;2.03;;;;;;;;;;10512124;28;20544;-76
2022/04/09 19:55:19;;;;;;;6.68;1.92;;;;;;;;;;10512308;28;20027;-75
2022/04/09 20:00:20;;;;;;;8.07;2.22;;;;;;;;;;10512205;28;20028;-73
2022/04/09 20:05:20;;;;;;;7.07;2.95;;;;;;;;;;10446042;28;20067;-74
2022/04/09 20:10:21;;;;;;;10.85;2.63;;;;;;;;;;10429049;28;20049;-72
2022/04/09 20:15:21;;;;;;;7.55;2.72;;;;;;;;;;10429874;28;20522;-75
2022/04/09 20:20:21;;;;;;;10.57;2.90;;;;;;;;;;10429486;28;20112;-71
2022/04/09 20:25:22;;;;;;;8.03;2.63;;;;;;;;;;10429227;28;20063;-72
2022/04/09 20:30:22;;;;;;;8.07;2.72;;;;;;;;;;10429398;28;20028;-71
2022/04/09 20:35:22;;;;;;;9.93;3.63;;;;;;;;;;10428936;28;20028;-72
2022/04/09 20:40:23;;;;;;;6.00;2.88;;;;;;;;;;10429339;28;20044;-72
2022/04/09 20:45:23;;;;;;;11.47;2.90;;;;;;;;;;10429527;28;20021;-75
2022/04/09 20:50:23;;;;;;;10.63;3.00;;;;;;;;;;10428888;28;20037;-72
2022/04/09 20:55:24;;;;;;;9.13;2.87;;;;;;;;;;10429273;28;20693;-73
2022/04/09 21:00:24;;;;;;;5.38;2.60;;;;;;;;;;10446660;28;20494;-71
2022/04/09 21:05:25;;;;;;;8.53;3.63;;;;;;;;;;10428695;28;20036;-72
2022/04/09 21:10:25;;;;;;;13.63;3.55;;;;;;;;;;10428588;28;20053;-73
2022/04/09 21:15:25;;;;;;;12.98;3.85;;;;;;;;;;10428394;28;20082;-71
2022/04/09 21:20:25;;;;;;;7.40;3.42;;;;;;;;;;10412330;28;20037;-72
2022/04/09 21:25:26;;;;;;;5.03;3.33;;;;;;;;;;10411822;28;20099;-75
2022/04/09 21:30:26;;;;;;;6.93;3.15;;;;;;;;;;10446353;28;20081;-72
2022/04/09 21:35:27;;;;;;;6.40;2.90;;;;;;;;;;10431652;28;20028;-78
2022/04/09 21:40:27;;;;;;;8.55;2.67;;;;;;;;;;10435837;28;20097;-71
2022/04/09 21:45:28;;;;;;;10.73;3.00;;;;;;;;;;10436102;28;20024;-72
2022/04/09 21:50:28;;;;;;;15.25;4.03;;;;;;;;;;10453546;28;20021;-72
2022/04/09 21:55:28;;;;;;;7.80;3.27;;;;;;;;;;10435481;28;20042;-72
2022/04/09 22:00:40;;;;;;;11.23;3.20;;;;;;;;;;10435563;28;20032;-77
2022/04/09 22:05:41;;;;;;;8.55;2.97;;;;;;;;;;10435679;28;20017;-72
2022/04/09 22:10:41;;;;;;;17.27;3.25;;;;;;;;;;10435232;28;20508;-72
2022/04/09 22:15:42;;;;;;;13.05;3.60;;;;;;;;;;10435328;28;20162;-71
2022/04/09 22:20:42;;;;;;;8.88;3.15;;;;;;;;;;10448163;28;20025;-72
2022/04/09 22:25:43;;;;;;;7.00;2.83;;;;;;;;;;10451362;28;20020;-72
2022/04/09 22:30:43;;;;;;;7.77;2.77;;;;;;;;;;10452025;28;20040;-72
2022/04/09 22:35:44;;;;;;;6.97;3.07;;;;;;;;;;10451865;28;20294;-70
2022/04/09 22:40:44;;;;;;;5.07;2.70;;;;;;;;;;10450455;28;20333;-71
2022/04/09 22:45:44;;;;;;;8.85;2.88;;;;;;;;;;10464806;28;20653;-71
2022/04/09 22:50:44;;;;;;;9.80;3.00;;;;;;;;;;10450116;28;20518;-71
2022/04/09 22:55:45;;;;;;;5.97;3.05;;;;;;;;;;10449684;28;20047;-72
2022/04/09 23:00:45;;;;;;;7.43;2.43;;;;;;;;;;10433116;28;20059;-71
2022/04/09 23:05:46;;;;;;;5.22;3.92;;;;;;;;;;10449588;28;20024;-72
2022/04/09 23:10:46;;;;;;;5.20;2.63;;;;;;;;;;10391380;28;20049;-71
2022/04/09 23:15:47;;;;;;;6.28;2.97;;;;;;;;;;10424382;28;20048;-73
2022/04/09 23:20:47;;;;;;;15.73;3.17;;;;;;;;;;10407790;28;20025;-72
2022/04/09 23:25:47;;;;;;;13.20;2.50;;;;;;;;;;10408931;28;20029;-72
2022/04/09 23:30:47;;;;;;;10.00;3.05;;;;;;;;;;10407605;28;20029;-72
2022/04/09 23:35:48;;;;;;;6.47;2.92;;;;;;;;;;10408652;28;20021;-75
2022/04/09 23:40:48;;;;;;;14.38;3.00;;;;;;;;;;10432257;28;20500;-75
2022/04/09 23:45:48;;;;;;;8.07;3.45;;;;;;;;;;10448277;28;20477;-81
2022/04/09 23:50:49;;;;;;;7.97;2.33;;;;;;;;;;10448244;28;20016;-75
2022/04/09 23:55:49;;;;;;;4.78;2.47;;;;;;;;;;10447579;28;20512;-75
